sensor_id;sensor_type;location;lat;lon;timestamp;temperature;humidity
20829;DHT22;10575;50.124;8.582;2023-10-31T00:01:04;13.30;99.90
20829;DHT22;10575;50.124;8.582;2023-10-31T00:03:30;13.30;99.90
20829;DHT22;10575;50.124;8.582;2023-10-31T00:05:55;13.30;99.90
20829;DHT22;10575;50.124;8.582;2023-10-31T00:08:21;13.20;99.90
20829;DHT22;10575;50.124;8.582;2023-10-31T00:10:46;13.30;99.90
20829;DHT22;10575;50.124;8.582;2023-10-31T00:13:13;13.30;99.90
20829;DHT22;10575;50.124;8.582;2023-10-31T00:15:38;13.20;99.90
20829;DHT22;10575;50.124;8.582;2023-10-31T00:18:04;13.20;99.90
20829;DHT22;10575;50.124;8.582;2023-10-31T00:20:29;13.10;99.90
20829;DHT22;10575;50.124;8.582;2023-10-31T00:22:55;13.10;99.90
20829;DHT22;10575;50.124;8.582;2023-10-31T00:25:20;13.00;99.90
20829;DHT22;10575;50.124;8.582;2023-10-31T00:27:46;12.90;99.90
20829;DHT22;10575;50.124;8.582;2023-10-31T00:30:11;12.90;99.90
20829;DHT22;10575;50.124;8.582;2023-10-31T00:32:37;13.00;99.90
20829;DHT22;10575;50.124;8.582;2023-10-31T00:35:03;13.00;99.90
20829;DHT22;10575;50.124;8.582;2023-10-31T00:37:28;13.00;99.90
20829;DHT22;10575;50.124;8.582;2023-10-31T00:39:54;13.00;99.90
20829;DHT22;10575;50.124;8.582;2023-10-31T00:42:19;12.90;99.90
20829;DHT22;10575;50.124;8.582;2023-10-31T00:44:45;12.90;99.90
20829;DHT22;10575;50.124;8.582;2023-10-31T00:47:10;12.90;99.90
20829;DHT22;10575;50.124;8.582;2023-10-31T00:49:36;12.80;99.90
20829;DHT22;10575;50.124;8.582;2023-10-31T00:52:02;12.80;99.90
20829;DHT22;10575;50.124;8.582;2023-10-31T00:54:27;12.80;99.90
20829;DHT22;10575;50.124;8.582;2023-10-31T00:56:53;12.80;99.90
20829;DHT22;10575;50.124;8.582;2023-10-31T00:59:18;12.80;99.90
20829;DHT22;10575;50.124;8.582;2023-10-31T01:01:44;12.80;99.90
20829;DHT22;10575;50.124;8.582;2023-10-31T01:04:10;12.90;99.90
20829;DHT22;10575;50.124;8.582;2023-10-31T01:06:42;12.80;99.90
20829;DHT22;10575;50.124;8.582;2023-10-31T01:09:09;12.80;99.90
20829;DHT22;10575;50.124;8.582;2023-10-31T01:11:34;12.80;99.90
20829;DHT22;10575;50.124;8.582;2023-10-31T01:14:00;12.90;99.90
20829;DHT22;10575;50.124;8.582;2023-10-31T01:16:25;12.90;99.90
20829;DHT22;10575;50.124;8.582;2023-10-31T01:18:51;13.00;99.90
20829;DHT22;10575;50.124;8.582;2023-10-31T01:21:16;12.90;99.90
20829;DHT22;10575;50.124;8.582;2023-10-31T01:23:42;12.80;99.90
20829;DHT22;10575;50.124;8.582;2023-10-31T01:26:07;12.70;99.90
20829;DHT22;10575;50.124;8.582;2023-10-31T01:28:33;12.50;99.90
20829;DHT22;10575;50.124;8.582;2023-10-31T01:30:58;12.40;99.90
20829;DHT22;10575;50.124;8.582;2023-10-31T01:33:24;12.40;99.90
20829;DHT22;10575;50.124;8.582;2023-10-31T01:35:49;12.30;99.90
20829;DHT22;10575;50.124;8.582;2023-10-31T01:38:20;12.30;99.90
20829;DHT22;10575;50.124;8.582;2023-10-31T01:40:49;12.40;99.90
20829;DHT22;10575;50.124;8.582;2023-10-31T01:43:32;12.30;99.90
20829;DHT22;10575;50.124;8.582;2023-10-31T01:45:58;12.30;99.90
20829;DHT22;10575;50.124;8.582;2023-10-31T01:48:25;12.30;99.90
20829;DHT22;10575;50.124;8.582;2023-10-31T01:50:52;12.50;99.90
20829;DHT22;10575;50.124;8.582;2023-10-31T01:53:18;12.60;99.90
20829;DHT22;10575;50.124;8.582;2023-10-31T01:55:45;12.60;99.90
20829;DHT22;10575;50.124;8.582;2023-10-31T01:58:14;12.60;99.90
20829;DHT22;10575;50.124;8.582;2023-10-31T02:00:40;12.60;99.90
20829;DHT22;10575;50.124;8.582;2023-10-31T02:03:09;12.70;99.90
20829;DHT22;10575;50.124;8.582;2023-10-31T02:05:35;12.70;99.90
20829;DHT22;10575;50.124;8.582;2023-10-31T02:08:01;12.80;99.90
20829;DHT22;10575;50.124;8.582;2023-10-31T02:10:27;12.90;99.90
20829;DHT22;10575;50.124;8.582;2023-10-31T02:12:53;12.80;99.90
20829;DHT22;10575;50.124;8.582;2023-10-31T02:15:18;12.70;99.90
20829;DHT22;10575;50.124;8.582;2023-10-31T02:17:44;12.70;99.90
20829;DHT22;10575;50.124;8.582;2023-10-31T02:20:10;12.80;99.90
20829;DHT22;10575;50.124;8.582;2023-10-31T02:22:35;12.70;99.90
20829;DHT22;10575;50.124;8.582;2023-10-31T02:25:01;12.70;99.90
20829;DHT22;10575;50.124;8.582;2023-10-31T02:27:28;12.60;99.90
20829;DHT22;10575;50.124;8.582;2023-10-31T02:29:53;12.50;99.90
20829;DHT22;10575;50.124;8.582;2023-10-31T02:32:19;12.40;99.90
20829;DHT22;10575;50.124;8.582;2023-10-31T02:34:45;12.40;99.90
20829;DHT22;10575;50.124;8.582;2023-10-31T02:37:10;12.30;99.90
20829;DHT22;10575;50.124;8.582;2023-10-31T02:39:37;12.40;99.90
20829;DHT22;10575;50.124;8.582;2023-10-31T02:42:05;12.30;99.90
20829;DHT22;10575;50.124;8.582;2023-10-31T02:44:31;12.40;99.90
20829;DHT22;10575;50.124;8.582;2023-10-31T02:46:57;12.30;99.90
20829;DHT22;10575;50.124;8.582;2023-10-31T02:49:22;12.30;99.90
20829;DHT22;10575;50.124;8.582;2023-10-31T02:51:48;12.30;99.90
20829;DHT22;10575;50.124;8.582;2023-10-31T02:54:13;12.20;99.90
20829;DHT22;10575;50.124;8.582;2023-10-31T02:56:42;12.20;99.90
20829;DHT22;10575;50.124;8.582;2023-10-31T02:59:07;12.20;99.90
20829;DHT22;10575;50.124;8.582;2023-10-31T03:01:33;12.30;99.90
20829;DHT22;10575;50.124;8.582;2023-10-31T03:03:59;12.30;99.90
20829;DHT22;10575;50.124;8.582;2023-10-31T03:06:24;12.20;99.90
20829;DHT22;10575;50.124;8.582;2023-10-31T03:08:50;12.10;99.90
20829;DHT22;10575;50.124;8.582;2023-10-31T03:11:25;11.90;99.90
20829;DHT22;10575;50.124;8.582;2023-10-31T03:13:51;11.80;99.90
20829;DHT22;10575;50.124;8.582;2023-10-31T03:16:18;11.80;99.90
20829;DHT22;10575;50.124;8.582;2023-10-31T03:18:45;11.60;99.90
20829;DHT22;10575;50.124;8.582;2023-10-31T03:21:12;11.60;99.90
20829;DHT22;10575;50.124;8.582;2023-10-31T03:23:37;11.70;99.90
20829;DHT22;10575;50.124;8.582;2023-10-31T03:26:03;11.80;99.90
20829;DHT22;10575;50.124;8.582;2023-10-31T03:28:28;11.80;99.90
20829;DHT22;10575;50.124;8.582;2023-10-31T03:30:54;11.80;99.90
20829;DHT22;10575;50.124;8.582;2023-10-31T03:33:19;11.70;99.90
20829;DHT22;10575;50.124;8.582;2023-10-31T03:35:45;11.60;99.90
20829;DHT22;10575;50.124;8.582;2023-10-31T03:38:11;11.60;99.90
20829;DHT22;10575;50.124;8.582;2023-10-31T03:40:36;11.50;99.90
20829;DHT22;10575;50.124;8.582;2023-10-31T03:43:02;11.60;99.90
20829;DHT22;10575;50.124;8.582;2023-10-31T03:45:28;11.80;99.90
20829;DHT22;10575;50.124;8.582;2023-10-31T03:47:54;11.90;99.90
20829;DHT22;10575;50.124;8.582;2023-10-31T03:50:19;11.90;99.90
20829;DHT22;10575;50.124;8.582;2023-10-31T03:52:45;12.00;99.90
20829;DHT22;10575;50.124;8.582;2023-10-31T03:55:10;12.00;99.90
20829;DHT22;10575;50.124;8.582;2023-10-31T03:57:36;12.00;99.90
20829;DHT22;10575;50.124;8.582;2023-10-31T04:00:02;12.00;99.90
20829;DHT22;10575;50.124;8.582;2023-10-31T04:02:30;12.10;99.90
20829;DHT22;10575;50.124;8.582;2023-10-31T04:04:55;12.00;99.90
20829;DHT22;10575;50.124;8.582;2023-10-31T04:07:21;11.90;99.90
20829;DHT22;10575;50.124;8.582;2023-10-31T04:09:46;11.80;99.90
20829;DHT22;10575;50.124;8.582;2023-10-31T04:12:12;11.80;99.90
20829;DHT22;10575;50.124;8.582;2023-10-31T04:14:38;11.80;99.90
20829;DHT22;10575;50.124;8.582;2023-10-31T04:17:04;11.80;99.90
20829;DHT22;10575;50.124;8.582;2023-10-31T04:19:29;11.80;99.90
20829;DHT22;10575;50.124;8.582;2023-10-31T04:21:55;11.80;99.90
20829;DHT22;10575;50.124;8.582;2023-10-31T04:24:21;11.80;99.90
20829;DHT22;10575;50.124;8.582;2023-10-31T04:26:46;11.60;99.90
20829;DHT22;10575;50.124;8.582;2023-10-31T04:29:11;11.80;99.90
20829;DHT22;10575;50.124;8.582;2023-10-31T04:31:37;11.80;99.90
20829;DHT22;10575;50.124;8.582;2023-10-31T04:34:03;11.80;99.90
20829;DHT22;10575;50.124;8.582;2023-10-31T04:36:28;11.80;99.90
20829;DHT22;10575;50.124;8.582;2023-10-31T04:38:54;11.80;99.90
20829;DHT22;10575;50.124;8.582;2023-10-31T04:41:19;11.80;99.90
20829;DHT22;10575;50.124;8.582;2023-10-31T04:43:45;11.80;99.90
20829;DHT22;10575;50.124;8.582;2023-10-31T04:46:11;11.80;99.90
20829;DHT22;10575;50.124;8.582;2023-10-31T04:48:36;11.90;99.90
20829;DHT22;10575;50.124;8.582;2023-10-31T04:51:02;11.80;99.90
20829;DHT22;10575;50.124;8.582;2023-10-31T04:53:28;11.80;99.90
20829;DHT22;10575;50.124;8.582;2023-10-31T04:55:53;11.80;99.90
20829;DHT22;10575;50.124;8.582;2023-10-31T04:58:19;11.90;99.90
20829;DHT22;10575;50.124;8.582;2023-10-31T05:00:44;11.90;99.90
20829;DHT22;10575;50.124;8.582;2023-10-31T05:03:10;12.00;99.90
20829;DHT22;10575;50.124;8.582;2023-10-31T05:05:36;12.00;99.90
20829;DHT22;10575;50.124;8.582;2023-10-31T05:08:01;12.00;99.90
20829;DHT22;10575;50.124;8.582;2023-10-31T05:10:27;12.00;99.90
20829;DHT22;10575;50.124;8.582;2023-10-31T05:12:52;12.00;99.90
20829;DHT22;10575;50.124;8.582;2023-10-31T05:15:18;11.90;99.90
20829;DHT22;10575;50.124;8.582;2023-10-31T05:17:44;11.90;99.90
20829;DHT22;10575;50.124;8.582;2023-10-31T05:20:10;11.90;99.90
20829;DHT22;10575;50.124;8.582;2023-10-31T05:22:37;12.00;99.90
20829;DHT22;10575;50.124;8.582;2023-10-31T05:25:02;12.00;99.90
20829;DHT22;10575;50.124;8.582;2023-10-31T05:27:28;11.90;99.90
20829;DHT22;10575;50.124;8.582;2023-10-31T05:29:54;11.90;99.90
20829;DHT22;10575;50.124;8.582;2023-10-31T05:32:20;11.80;99.90
20829;DHT22;10575;50.124;8.582;2023-10-31T05:34:45;11.80;99.90
20829;DHT22;10575;50.124;8.582;2023-10-31T05:37:10;11.80;99.90
20829;DHT22;10575;50.124;8.582;2023-10-31T05:39:36;11.80;99.90
20829;DHT22;10575;50.124;8.582;2023-10-31T05:42:02;11.80;99.90
20829;DHT22;10575;50.124;8.582;2023-10-31T05:44:28;11.80;99.90
20829;DHT22;10575;50.124;8.582;2023-10-31T05:46:54;11.80;99.90
20829;DHT22;10575;50.124;8.582;2023-10-31T05:49:19;11.90;99.90
20829;DHT22;10575;50.124;8.582;2023-10-31T05:51:50;11.90;99.90
20829;DHT22;10575;50.124;8.582;2023-10-31T05:54:17;11.80;99.90
20829;DHT22;10575;50.124;8.582;2023-10-31T05:56:42;11.90;99.90
20829;DHT22;10575;50.124;8.582;2023-10-31T05:59:08;11.90;99.90
20829;DHT22;10575;50.124;8.582;2023-10-31T06:01:34;12.00;99.90
20829;DHT22;10575;50.124;8.582;2023-10-31T06:03:59;11.90;99.90
20829;DHT22;10575;50.124;8.582;2023-10-31T06:06:25;11.80;99.90
20829;DHT22;10575;50.124;8.582;2023-10-31T06:08:50;11.80;99.90
20829;DHT22;10575;50.124;8.582;2023-10-31T06:11:16;11.80;99.90
20829;DHT22;10575;50.124;8.582;2023-10-31T06:13:41;11.80;99.90
20829;DHT22;10575;50.124;8.582;2023-10-31T06:16:07;11.70;99.90
20829;DHT22;10575;50.124;8.582;2023-10-31T06:18:33;11.70;99.90
20829;DHT22;10575;50.124;8.582;2023-10-31T06:20:59;11.60;99.90
20829;DHT22;10575;50.124;8.582;2023-10-31T06:23:25;11.60;99.90
20829;DHT22;10575;50.124;8.582;2023-10-31T06:25:50;11.60;99.90
20829;DHT22;10575;50.124;8.582;2023-10-31T06:28:16;11.60;99.90
20829;DHT22;10575;50.124;8.582;2023-10-31T06:30:41;11.60;99.90
20829;DHT22;10575;50.124;8.582;2023-10-31T06:33:07;11.70;99.90
20829;DHT22;10575;50.124;8.582;2023-10-31T06:35:34;11.90;99.90
20829;DHT22;10575;50.124;8.582;2023-10-31T06:38:00;11.80;99.90
20829;DHT22;10575;50.124;8.582;2023-10-31T06:40:26;11.80;99.90
20829;DHT22;10575;50.124;8.582;2023-10-31T06:42:52;11.70;99.90
20829;DHT22;10575;50.124;8.582;2023-10-31T06:45:18;11.80;99.90
20829;DHT22;10575;50.124;8.582;2023-10-31T06:47:43;11.90;99.90
20829;DHT22;10575;50.124;8.582;2023-10-31T06:50:09;11.80;99.90
20829;DHT22;10575;50.124;8.582;2023-10-31T06:52:35;11.80;99.90
20829;DHT22;10575;50.124;8.582;2023-10-31T06:55:00;11.80;99.90
20829;DHT22;10575;50.124;8.582;2023-10-31T06:57:26;11.80;99.90
20829;DHT22;10575;50.124;8.582;2023-10-31T06:59:52;11.70;99.90
20829;DHT22;10575;50.124;8.582;2023-10-31T07:02:17;11.60;99.90
20829;DHT22;10575;50.124;8.582;2023-10-31T07:04:43;11.70;99.90
20829;DHT22;10575;50.124;8.582;2023-10-31T07:07:08;11.70;99.90
20829;DHT22;10575;50.124;8.582;2023-10-31T07:09:34;11.70;99.90
20829;DHT22;10575;50.124;8.582;2023-10-31T07:11:59;11.70;99.90
20829;DHT22;10575;50.124;8.582;2023-10-31T07:14:25;11.80;99.90
20829;DHT22;10575;50.124;8.582;2023-10-31T07:16:50;11.80;99.90
20829;DHT22;10575;50.124;8.582;2023-10-31T07:19:16;11.80;99.90
20829;DHT22;10575;50.124;8.582;2023-10-31T07:21:41;11.80;99.90
20829;DHT22;10575;50.124;8.582;2023-10-31T07:24:07;11.80;99.90
20829;DHT22;10575;50.124;8.582;2023-10-31T07:26:35;11.90;99.90
20829;DHT22;10575;50.124;8.582;2023-10-31T07:29:00;11.80;99.90
20829;DHT22;10575;50.124;8.582;2023-10-31T07:31:26;11.90;99.90
20829;DHT22;10575;50.124;8.582;2023-10-31T07:33:51;11.80;99.90
20829;DHT22;10575;50.124;8.582;2023-10-31T07:36:17;11.80;99.90
20829;DHT22;10575;50.124;8.582;2023-10-31T07:38:42;11.90;99.90
20829;DHT22;10575;50.124;8.582;2023-10-31T07:41:08;11.90;99.90
20829;DHT22;10575;50.124;8.582;2023-10-31T07:43:33;12.00;99.90
20829;DHT22;10575;50.124;8.582;2023-10-31T07:45:59;12.00;99.90
20829;DHT22;10575;50.124;8.582;2023-10-31T07:48:24;12.00;99.90
20829;DHT22;10575;50.124;8.582;2023-10-31T07:50:50;12.00;99.90
20829;DHT22;10575;50.124;8.582;2023-10-31T07:53:15;12.00;99.90
20829;DHT22;10575;50.124;8.582;2023-10-31T07:55:41;12.20;99.90
20829;DHT22;10575;50.124;8.582;2023-10-31T07:58:06;12.20;99.90
20829;DHT22;10575;50.124;8.582;2023-10-31T08:00:32;12.10;99.90
20829;DHT22;10575;50.124;8.582;2023-10-31T08:03:00;12.20;99.90
20829;DHT22;10575;50.124;8.582;2023-10-31T08:05:25;12.20;99.90
20829;DHT22;10575;50.124;8.582;2023-10-31T08:07:51;12.10;99.90
20829;DHT22;10575;50.124;8.582;2023-10-31T08:10:16;12.00;99.90
20829;DHT22;10575;50.124;8.582;2023-10-31T08:12:42;12.20;99.90
20829;DHT22;10575;50.124;8.582;2023-10-31T08:15:07;12.20;99.90
20829;DHT22;10575;50.124;8.582;2023-10-31T08:17:34;12.20;99.90
20829;DHT22;10575;50.124;8.582;2023-10-31T08:19:59;12.30;99.90
20829;DHT22;10575;50.124;8.582;2023-10-31T08:22:25;12.30;99.90
20829;DHT22;10575;50.124;8.582;2023-10-31T08:24:50;12.30;99.90
20829;DHT22;10575;50.124;8.582;2023-10-31T08:27:16;12.40;99.90
20829;DHT22;10575;50.124;8.582;2023-10-31T08:29:41;12.40;99.90
20829;DHT22;10575;50.124;8.582;2023-10-31T08:32:07;12.30;99.90
20829;DHT22;10575;50.124;8.582;2023-10-31T08:34:32;12.40;99.90
20829;DHT22;10575;50.124;8.582;2023-10-31T08:36:58;12.40;99.90
20829;DHT22;10575;50.124;8.582;2023-10-31T08:39:24;12.50;99.90
20829;DHT22;10575;50.124;8.582;2023-10-31T08:41:54;12.60;99.90
20829;DHT22;10575;50.124;8.582;2023-10-31T08:44:20;12.60;99.90
20829;DHT22;10575;50.124;8.582;2023-10-31T08:46:46;12.60;99.90
20829;DHT22;10575;50.124;8.582;2023-10-31T08:49:12;12.60;99.90
20829;DHT22;10575;50.124;8.582;2023-10-31T08:51:38;12.70;99.90
20829;DHT22;10575;50.124;8.582;2023-10-31T08:54:03;12.70;99.90
20829;DHT22;10575;50.124;8.582;2023-10-31T08:56:29;12.80;99.90
20829;DHT22;10575;50.124;8.582;2023-10-31T08:58:54;12.90;99.90
20829;DHT22;10575;50.124;8.582;2023-10-31T09:01:20;13.00;99.90
20829;DHT22;10575;50.124;8.582;2023-10-31T09:03:46;13.10;99.90
20829;DHT22;10575;50.124;8.582;2023-10-31T09:06:11;13.10;99.90
20829;DHT22;10575;50.124;8.582;2023-10-31T09:08:37;13.20;99.90
20829;DHT22;10575;50.124;8.582;2023-10-31T09:11:06;13.40;99.90
20829;DHT22;10575;50.124;8.582;2023-10-31T09:13:32;13.30;99.90
20829;DHT22;10575;50.124;8.582;2023-10-31T09:15:58;13.30;99.90
20829;DHT22;10575;50.124;8.582;2023-10-31T09:18:24;13.30;99.90
20829;DHT22;10575;50.124;8.582;2023-10-31T09:20:50;13.30;99.90
20829;DHT22;10575;50.124;8.582;2023-10-31T09:23:16;13.50;99.90
20829;DHT22;10575;50.124;8.582;2023-10-31T09:25:43;13.60;99.90
20829;DHT22;10575;50.124;8.582;2023-10-31T09:28:08;13.60;99.90
20829;DHT22;10575;50.124;8.582;2023-10-31T09:30:34;13.60;99.90
20829;DHT22;10575;50.124;8.582;2023-10-31T09:33:00;13.60;99.90
20829;DHT22;10575;50.124;8.582;2023-10-31T09:35:25;13.60;99.90
20829;DHT22;10575;50.124;8.582;2023-10-31T09:37:52;13.40;99.90
20829;DHT22;10575;50.124;8.582;2023-10-31T09:40:17;13.50;99.90
20829;DHT22;10575;50.124;8.582;2023-10-31T09:42:44;13.40;99.90
20829;DHT22;10575;50.124;8.582;2023-10-31T09:45:11;13.50;99.90
20829;DHT22;10575;50.124;8.582;2023-10-31T09:47:37;13.60;99.90
20829;DHT22;10575;50.124;8.582;2023-10-31T09:50:03;13.40;99.90
20829;DHT22;10575;50.124;8.582;2023-10-31T09:52:29;13.60;99.90
20829;DHT22;10575;50.124;8.582;2023-10-31T09:54:54;13.60;99.90
20829;DHT22;10575;50.124;8.582;2023-10-31T09:57:21;13.70;99.90
20829;DHT22;10575;50.124;8.582;2023-10-31T09:59:47;13.50;99.90
20829;DHT22;10575;50.124;8.582;2023-10-31T10:02:12;13.70;99.90
20829;DHT22;10575;50.124;8.582;2023-10-31T10:04:38;13.70;99.90
20829;DHT22;10575;50.124;8.582;2023-10-31T10:07:04;13.80;99.90
20829;DHT22;10575;50.124;8.582;2023-10-31T10:09:30;13.80;99.90
20829;DHT22;10575;50.124;8.582;2023-10-31T10:11:59;13.90;99.90
20829;DHT22;10575;50.124;8.582;2023-10-31T10:14:26;13.90;99.90
20829;DHT22;10575;50.124;8.582;2023-10-31T10:16:57;13.90;99.90
20829;DHT22;10575;50.124;8.582;2023-10-31T10:19:23;13.90;99.90
20829;DHT22;10575;50.124;8.582;2023-10-31T10:21:53;13.90;99.90
20829;DHT22;10575;50.124;8.582;2023-10-31T10:24:20;14.00;99.90
20829;DHT22;10575;50.124;8.582;2023-10-31T10:26:46;14.20;99.90
20829;DHT22;10575;50.124;8.582;2023-10-31T10:29:12;14.30;99.90
20829;DHT22;10575;50.124;8.582;2023-10-31T10:31:38;14.40;99.90
20829;DHT22;10575;50.124;8.582;2023-10-31T10:34:04;14.60;99.90
20829;DHT22;10575;50.124;8.582;2023-10-31T10:36:32;14.70;99.90
20829;DHT22;10575;50.124;8.582;2023-10-31T10:38:59;14.90;99.90
20829;DHT22;10575;50.124;8.582;2023-10-31T10:41:26;14.90;99.90
20829;DHT22;10575;50.124;8.582;2023-10-31T10:44:17;15.10;99.90
20829;DHT22;10575;50.124;8.582;2023-10-31T10:46:48;15.20;99.90
20829;DHT22;10575;50.124;8.582;2023-10-31T10:49:15;15.30;99.90
20829;DHT22;10575;50.124;8.582;2023-10-31T10:51:58;15.20;99.90
20829;DHT22;10575;50.124;8.582;2023-10-31T10:54:39;15.10;99.90
20829;DHT22;10575;50.124;8.582;2023-10-31T10:57:25;15.00;99.90
20829;DHT22;10575;50.124;8.582;2023-10-31T10:59:55;15.00;99.90
20829;DHT22;10575;50.124;8.582;2023-10-31T11:02:24;15.00;99.90
20829;DHT22;10575;50.124;8.582;2023-10-31T11:04:51;14.80;99.90
20829;DHT22;10575;50.124;8.582;2023-10-31T11:07:18;14.80;99.90
20829;DHT22;10575;50.124;8.582;2023-10-31T11:09:44;14.80;99.90
20829;DHT22;10575;50.124;8.582;2023-10-31T11:12:11;14.90;99.90
20829;DHT22;10575;50.124;8.582;2023-10-31T11:14:38;15.00;99.90
20829;DHT22;10575;50.124;8.582;2023-10-31T11:17:11;15.20;99.90
20829;DHT22;10575;50.124;8.582;2023-10-31T11:19:40;15.20;99.90
20829;DHT22;10575;50.124;8.582;2023-10-31T11:22:05;15.20;99.90
20829;DHT22;10575;50.124;8.582;2023-10-31T11:24:32;15.00;99.90
20829;DHT22;10575;50.124;8.582;2023-10-31T11:27:01;14.90;99.90
20829;DHT22;10575;50.124;8.582;2023-10-31T11:29:27;14.70;99.90
20829;DHT22;10575;50.124;8.582;2023-10-31T11:31:55;14.70;99.90
20829;DHT22;10575;50.124;8.582;2023-10-31T11:34:21;14.60;99.90
20829;DHT22;10575;50.124;8.582;2023-10-31T11:36:47;14.60;99.90
20829;DHT22;10575;50.124;8.582;2023-10-31T11:39:14;14.80;99.90
20829;DHT22;10575;50.124;8.582;2023-10-31T11:41:48;14.90;99.90
20829;DHT22;10575;50.124;8.582;2023-10-31T11:44:15;15.00;99.90
20829;DHT22;10575;50.124;8.582;2023-10-31T11:46:40;15.10;99.90
20829;DHT22;10575;50.124;8.582;2023-10-31T11:49:06;15.00;99.90
20829;DHT22;10575;50.124;8.582;2023-10-31T11:51:32;15.00;99.90
20829;DHT22;10575;50.124;8.582;2023-10-31T11:54:00;15.00;99.90
20829;DHT22;10575;50.124;8.582;2023-10-31T11:56:26;14.90;99.90
20829;DHT22;10575;50.124;8.582;2023-10-31T11:59:18;14.90;99.90
20829;DHT22;10575;50.124;8.582;2023-10-31T12:01:45;15.10;99.90
20829;DHT22;10575;50.124;8.582;2023-10-31T12:04:21;15.20;99.90
20829;DHT22;10575;50.124;8.582;2023-10-31T12:06:57;15.20;99.90
20829;DHT22;10575;50.124;8.582;2023-10-31T12:09:22;15.00;99.90
20829;DHT22;10575;50.124;8.582;2023-10-31T12:11:48;15.10;99.90
20829;DHT22;10575;50.124;8.582;2023-10-31T12:14:18;15.20;99.90
20829;DHT22;10575;50.124;8.582;2023-10-31T12:16:45;15.20;99.90
20829;DHT22;10575;50.124;8.582;2023-10-31T12:19:11;15.30;99.90
20829;DHT22;10575;50.124;8.582;2023-10-31T12:21:39;15.40;99.90
20829;DHT22;10575;50.124;8.582;2023-10-31T12:24:06;15.30;99.90
20829;DHT22;10575;50.124;8.582;2023-10-31T12:26:33;15.30;99.90
20829;DHT22;10575;50.124;8.582;2023-10-31T12:29:14;15.40;99.90
20829;DHT22;10575;50.124;8.582;2023-10-31T12:31:52;15.30;99.90
20829;DHT22;10575;50.124;8.582;2023-10-31T12:34:22;15.40;99.90
20829;DHT22;10575;50.124;8.582;2023-10-31T12:36:53;15.40;99.90
20829;DHT22;10575;50.124;8.582;2023-10-31T12:39:24;15.30;99.90
20829;DHT22;10575;50.124;8.582;2023-10-31T12:41:51;15.10;99.90
20829;DHT22;10575;50.124;8.582;2023-10-31T12:44:23;15.10;99.90
20829;DHT22;10575;50.124;8.582;2023-10-31T12:46:48;15.10;99.90
20829;DHT22;10575;50.124;8.582;2023-10-31T12:49:18;15.10;99.90
20829;DHT22;10575;50.124;8.582;2023-10-31T12:52:02;15.20;99.90
20829;DHT22;10575;50.124;8.582;2023-10-31T12:54:30;15.30;99.90
20829;DHT22;10575;50.124;8.582;2023-10-31T12:57:00;15.50;99.90
20829;DHT22;10575;50.124;8.582;2023-10-31T12:59:26;15.60;99.90
20829;DHT22;10575;50.124;8.582;2023-10-31T13:01:51;15.60;99.90
20829;DHT22;10575;50.124;8.582;2023-10-31T13:04:27;15.70;99.90
20829;DHT22;10575;50.124;8.582;2023-10-31T13:06:57;15.50;99.90
20829;DHT22;10575;50.124;8.582;2023-10-31T13:09:23;15.60;99.90
20829;DHT22;10575;50.124;8.582;2023-10-31T13:11:48;15.50;99.90
20829;DHT22;10575;50.124;8.582;2023-10-31T13:14:14;15.60;99.90
20829;DHT22;10575;50.124;8.582;2023-10-31T13:16:39;15.60;99.90
20829;DHT22;10575;50.124;8.582;2023-10-31T13:19:05;15.40;99.90
20829;DHT22;10575;50.124;8.582;2023-10-31T13:21:30;15.30;99.90
20829;DHT22;10575;50.124;8.582;2023-10-31T13:23:56;15.20;99.90
20829;DHT22;10575;50.124;8.582;2023-10-31T13:26:21;15.10;99.90
20829;DHT22;10575;50.124;8.582;2023-10-31T13:28:47;15.00;99.90
20829;DHT22;10575;50.124;8.582;2023-10-31T13:31:12;14.80;99.90
20829;DHT22;10575;50.124;8.582;2023-10-31T13:33:39;14.80;99.90
20829;DHT22;10575;50.124;8.582;2023-10-31T13:36:05;14.90;99.90
20829;DHT22;10575;50.124;8.582;2023-10-31T13:38:31;14.90;99.90
20829;DHT22;10575;50.124;8.582;2023-10-31T13:40:56;15.30;99.90
20829;DHT22;10575;50.124;8.582;2023-10-31T13:43:22;15.50;99.90
20829;DHT22;10575;50.124;8.582;2023-10-31T13:45:47;15.50;99.90
20829;DHT22;10575;50.124;8.582;2023-10-31T13:48:12;15.60;99.90
20829;DHT22;10575;50.124;8.582;2023-10-31T13:50:40;15.60;99.90
20829;DHT22;10575;50.124;8.582;2023-10-31T13:53:06;15.50;99.90
20829;DHT22;10575;50.124;8.582;2023-10-31T13:55:33;15.40;99.90
20829;DHT22;10575;50.124;8.582;2023-10-31T13:57:58;15.40;99.90
20829;DHT22;10575;50.124;8.582;2023-10-31T14:00:24;15.50;99.90
20829;DHT22;10575;50.124;8.582;2023-10-31T14:02:49;15.50;99.90
20829;DHT22;10575;50.124;8.582;2023-10-31T14:05:15;15.70;99.90
20829;DHT22;10575;50.124;8.582;2023-10-31T14:07:41;15.80;99.90
20829;DHT22;10575;50.124;8.582;2023-10-31T14:10:07;15.70;99.90
20829;DHT22;10575;50.124;8.582;2023-10-31T14:12:33;15.50;99.90
20829;DHT22;10575;50.124;8.582;2023-10-31T14:14:58;15.40;99.90
20829;DHT22;10575;50.124;8.582;2023-10-31T14:17:24;15.30;99.90
20829;DHT22;10575;50.124;8.582;2023-10-31T14:19:50;15.30;99.90
20829;DHT22;10575;50.124;8.582;2023-10-31T14:22:15;15.20;99.90
20829;DHT22;10575;50.124;8.582;2023-10-31T14:24:41;15.10;99.90
20829;DHT22;10575;50.124;8.582;2023-10-31T14:27:06;15.10;99.90
20829;DHT22;10575;50.124;8.582;2023-10-31T14:29:32;15.10;99.90
20829;DHT22;10575;50.124;8.582;2023-10-31T14:32:05;15.00;99.90
20829;DHT22;10575;50.124;8.582;2023-10-31T14:34:31;15.00;99.90
20829;DHT22;10575;50.124;8.582;2023-10-31T14:36:57;14.90;99.90
20829;DHT22;10575;50.124;8.582;2023-10-31T14:39:22;14.80;99.90
20829;DHT22;10575;50.124;8.582;2023-10-31T14:41:48;14.70;99.90
20829;DHT22;10575;50.124;8.582;2023-10-31T14:44:13;14.60;99.90
20829;DHT22;10575;50.124;8.582;2023-10-31T14:46:40;14.60;99.90
20829;DHT22;10575;50.124;8.582;2023-10-31T14:49:05;14.60;99.90
20829;DHT22;10575;50.124;8.582;2023-10-31T14:51:31;14.60;99.90
20829;DHT22;10575;50.124;8.582;2023-10-31T14:53:56;14.50;99.90
20829;DHT22;10575;50.124;8.582;2023-10-31T14:56:23;14.50;99.90
20829;DHT22;10575;50.124;8.582;2023-10-31T14:58:49;14.30;99.90
20829;DHT22;10575;50.124;8.582;2023-10-31T15:01:15;14.20;99.90
20829;DHT22;10575;50.124;8.582;2023-10-31T15:03:41;14.20;99.90
20829;DHT22;10575;50.124;8.582;2023-10-31T15:06:07;14.10;99.90
20829;DHT22;10575;50.124;8.582;2023-10-31T15:08:33;14.10;99.90
20829;DHT22;10575;50.124;8.582;2023-10-31T15:10:58;14.00;99.90
20829;DHT22;10575;50.124;8.582;2023-10-31T15:13:24;14.10;99.90
20829;DHT22;10575;50.124;8.582;2023-10-31T15:15:50;14.00;99.90
20829;DHT22;10575;50.124;8.582;2023-10-31T15:18:15;13.90;99.90
20829;DHT22;10575;50.124;8.582;2023-10-31T15:20:41;13.90;99.90
20829;DHT22;10575;50.124;8.582;2023-10-31T15:23:06;13.70;99.90
20829;DHT22;10575;50.124;8.582;2023-10-31T15:25:33;13.70;99.90